Time;durP1;ratioP1;P1;durP2;ratioP2;P2;SDS_P1;SDS_P2;PMS_P1;PMS_P2;Temp;Humidity;BMP_temperature;BMP_pressure;BME280_temperature;BME280_humidity;BME280_pressure;Samples;Min_cycle;Max_cycle;Signal;HPM_P1;HPM_P2
2022/04/21 00:00:17;;;;;;;11.45;1.35;;;;;;;;;;5126204;28;20062;-42
2022/04/21 00:02:43;;;;;;;10.68;2.03;;;;;;;;;;5125619;28;20035;-41
2022/04/21 00:05:09;;;;;;;3.50;1.35;;;;;;;;;;5126576;28;20051;-43
2022/04/21 00:07:34;;;;;;;7.80;2.20;;;;;;;;;;5125776;28;20047;-43
2022/04/21 00:10:00;;;;;;;19.02;2.85;;;;;;;;;;5126837;28;20045;-44
2022/04/21 00:12:26;;;;;;;11.00;1.42;;;;;;;;;;5126845;28;20045;-46
2022/04/21 00:14:51;;;;;;;17.20;1.52;;;;;;;;;;5126793;28;20606;-41
2022/04/21 00:17:16;;;;;;;4.88;1.13;;;;;;;;;;5105134;28;20052;-41
2022/04/21 00:19:41;;;;;;;6.00;1.58;;;;;;;;;;5126653;28;20069;-42
2022/04/21 00:24:51;;;;;;;6.43;2.20;;;;;;;;;;5127349;28;20097;-47
2022/04/21 00:27:16;;;;;;;3.22;1.58;;;;;;;;;;5126916;28;20673;-44
2022/04/21 00:29:42;;;;;;;4.03;1.55;;;;;;;;;;5126368;28;20038;-42
2022/04/21 00:32:07;;;;;;;2.15;0.93;;;;;;;;;;5126108;28;20046;-44
2022/04/21 00:34:33;;;;;;;1.27;0.98;;;;;;;;;;5126170;27;20042;-43
2022/04/21 00:36:59;;;;;;;6.38;1.40;;;;;;;;;;5126383;28;20074;-44
2022/04/21 00:39:24;;;;;;;9.77;1.80;;;;;;;;;;5126022;28;20047;-45
2022/04/21 00:41:55;;;;;;;3.97;1.65;;;;;;;;;;5126277;28;20417;-45
2022/04/21 00:44:20;;;;;;;0.88;0.65;;;;;;;;;;5124731;28;20051;-42
2022/04/21 00:46:46;;;;;;;2.85;0.90;;;;;;;;;;5106734;28;20047;-42
2022/04/21 00:49:12;;;;;;;8.98;1.70;;;;;;;;;;5126520;28;20067;-44
2022/04/21 00:51:37;;;;;;;4.93;2.05;;;;;;;;;;5126105;28;20524;-45
2022/04/21 00:54:02;;;;;;;4.32;1.25;;;;;;;;;;5126660;28;20153;-42
2022/04/21 00:56:28;;;;;;;2.20;1.27;;;;;;;;;;5126123;28;20043;-42
2022/04/21 00:58:54;;;;;;;10.85;1.65;;;;;;;;;;5126736;28;20102;-44
2022/04/21 01:04:04;;;;;;;1.48;0.82;;;;;;;;;;5126461;28;20598;-41
2022/04/21 01:06:29;;;;;;;1.52;0.63;;;;;;;;;;5124941;28;20043;-46
2022/04/21 01:08:55;;;;;;;2.03;0.55;;;;;;;;;;5125840;28;20071;-43
2022/04/21 01:11:21;;;;;;;8.63;2.85;;;;;;;;;;5126140;28;20046;-44
2022/04/21 01:13:47;;;;;;;1.40;0.52;;;;;;;;;;5125627;28;20047;-44
2022/04/21 01:16:12;;;;;;;0.47;0.38;;;;;;;;;;5125564;28;20126;-46
2022/04/21 01:18:37;;;;;;;1.52;0.57;;;;;;;;;;5125384;28;20351;-46
2022/04/21 01:21:03;;;;;;;3.42;0.55;;;;;;;;;;5125487;28;20079;-45
2022/04/21 01:23:28;;;;;;;7.85;1.42;;;;;;;;;;5125384;28;20035;-42
2022/04/21 01:25:54;;;;;;;5.57;0.65;;;;;;;;;;5125930;28;20121;-44
2022/04/21 01:28:19;;;;;;;1.52;0.63;;;;;;;;;;5125335;28;20043;-44
2022/04/21 01:30:44;;;;;;;3.80;1.05;;;;;;;;;;5125759;28;20046;-42
2022/04/21 01:33:10;;;;;;;8.10;0.88;;;;;;;;;;5125314;28;20043;-46
2022/04/21 01:35:36;;;;;;;18.98;1.55;;;;;;;;;;5125674;28;21319;-42
2022/04/21 01:43:29;;;;;;;2.20;0.70;;;;;;;;;;5125106;28;20567;-42
2022/04/21 01:45:54;;;;;;;3.53;0.82;;;;;;;;;;5125104;27;20039;-45
2022/04/21 01:48:20;;;;;;;2.30;0.38;;;;;;;;;;5123843;28;20039;-42
2022/04/21 01:50:45;;;;;;;5.53;0.90;;;;;;;;;;5125227;28;20047;-42
2022/04/21 01:53:10;;;;;;;0.82;0.40;;;;;;;;;;5124882;28;20039;-45
2022/04/21 01:55:36;;;;;;;1.55;0.68;;;;;;;;;;5124488;28;20023;-41
2022/04/21 01:58:01;;;;;;;2.55;0.75;;;;;;;;;;5125252;28;20118;-44
2022/04/21 02:00:26;;;;;;;2.97;0.88;;;;;;;;;;5125459;28;20096;-45
2022/04/21 02:02:52;;;;;;;1.33;0.50;;;;;;;;;;5125183;28;20145;-48
2022/04/21 02:05:17;;;;;;;5.95;0.50;;;;;;;;;;5125060;28;20043;-45
2022/04/21 02:07:46;;;;;;;1.48;0.68;;;;;;;;;;5125588;28;20498;-41
2022/04/21 02:10:15;;;;;;;0.95;0.38;;;;;;;;;;5125634;28;20043;-45
2022/04/21 02:12:41;;;;;;;1.23;0.40;;;;;;;;;;5122804;28;20171;-43
2022/04/21 02:15:07;;;;;;;2.90;0.70;;;;;;;;;;5124688;28;20039;-45
2022/04/21 02:17:33;;;;;;;13.50;1.75;;;;;;;;;;5124830;28;20146;-44
2022/04/21 02:19:59;;;;;;;1.95;0.77;;;;;;;;;;5124941;28;20094;-48
2022/04/21 02:22:24;;;;;;;2.15;0.82;;;;;;;;;;5124777;28;20047;-45
2022/04/21 02:24:50;;;;;;;4.25;0.65;;;;;;;;;;5124608;28;20051;-47
2022/04/21 02:27:15;;;;;;;4.10;1.35;;;;;;;;;;5124729;28;21033;-43
2022/04/21 02:29:40;;;;;;;5.18;0.93;;;;;;;;;;5125020;28;20528;-45
2022/04/21 02:32:06;;;;;;;4.82;1.75;;;;;;;;;;5124905;28;20421;-45
2022/04/21 02:34:31;;;;;;;2.38;1.02;;;;;;;;;;5125097;28;20611;-45
2022/04/21 02:36:57;;;;;;;6.50;1.83;;;;;;;;;;5125272;28;20039;-44
2022/04/21 02:39:22;;;;;;;6.93;1.30;;;;;;;;;;5125299;28;20282;-47
2022/04/21 02:41:48;;;;;;;6.57;1.40;;;;;;;;;;5124374;28;20054;-41
2022/04/21 02:44:13;;;;;;;5.97;1.27;;;;;;;;;;5125102;28;20047;-42
2022/04/21 02:46:38;;;;;;;3.63;1.23;;;;;;;;;;5124622;28;20058;-42
2022/04/21 02:49:04;;;;;;;2.35;0.82;;;;;;;;;;5124124;28;20043;-40
2022/04/21 02:51:30;;;;;;;4.00;1.60;;;;;;;;;;5124622;28;20047;-40
2022/04/21 02:59:24;;;;;;;1.00;0.70;;;;;;;;;;5125911;27;20107;-41
2022/04/21 03:01:50;;;;;;;1.45;1.13;;;;;;;;;;5127774;28;20054;-40
2022/04/21 03:04:15;;;;;;;2.00;0.88;;;;;;;;;;5127763;28;20050;-40
2022/04/21 03:06:40;;;;;;;2.28;0.90;;;;;;;;;;5127814;28;20107;-44
2022/04/21 03:09:05;;;;;;;2.65;1.33;;;;;;;;;;5128537;28;20039;-43
2022/04/21 03:11:31;;;;;;;1.65;0.68;;;;;;;;;;5128326;28;20134;-43
2022/04/21 03:13:56;;;;;;;1.15;0.80;;;;;;;;;;5127172;28;20521;-47
2022/04/21 03:16:21;;;;;;;4.38;1.20;;;;;;;;;;5127684;28;20387;-44
2022/04/21 03:18:47;;;;;;;3.90;0.80;;;;;;;;;;5127463;28;20508;-43
2022/04/21 03:26:40;;;;;;;2.92;2.03;;;;;;;;;;5124617;28;20103;-45
2022/04/21 03:29:05;;;;;;;1.23;0.63;;;;;;;;;;5127682;28;20043;-44
2022/04/21 03:31:30;;;;;;;1.17;0.80;;;;;;;;;;5125932;28;20486;-43
2022/04/21 03:33:56;;;;;;;2.30;1.02;;;;;;;;;;5127642;28;20047;-45
2022/04/21 03:36:21;;;;;;;1.55;1.20;;;;;;;;;;5126976;28;20063;-44
2022/04/21 03:38:46;;;;;;;2.03;1.15;;;;;;;;;;5127312;28;20046;-44
2022/04/21 03:41:12;;;;;;;1.40;0.75;;;;;;;;;;5126802;28;20038;-41
2022/04/21 03:43:37;;;;;;;1.95;1.17;;;;;;;;;;5126467;28;20440;-43
2022/04/21 03:46:02;;;;;;;1.55;1.13;;;;;;;;;;5127013;28;20047;-46
2022/04/21 03:48:29;;;;;;;6.55;1.55;;;;;;;;;;5127120;28;20027;-45
2022/04/21 03:50:55;;;;;;;5.60;1.48;;;;;;;;;;5127345;28;20040;-43
2022/04/21 03:53:21;;;;;;;4.82;1.30;;;;;;;;;;5127203;28;20434;-44
2022/04/21 03:55:46;;;;;;;6.15;1.05;;;;;;;;;;5125990;28;20080;-42
2022/04/21 03:58:11;;;;;;;2.97;0.93;;;;;;;;;;5126815;28;20133;-46
2022/04/21 04:00:36;;;;;;;4.57;2.25;;;;;;;;;;5127328;28;20597;-42
2022/04/21 04:03:02;;;;;;;2.25;1.50;;;;;;;;;;5126591;28;20050;-44
2022/04/21 04:05:27;;;;;;;1.13;0.70;;;;;;;;;;5127279;28;20046;-43
2022/04/21 04:10:52;;;;;;;2.95;1.40;;;;;;;;;;5123278;27;20050;-44
2022/04/21 04:13:23;;;;;;;1.75;0.95;;;;;;;;;;5125630;28;20038;-44
2022/04/21 04:15:49;;;;;;;;;;;;;;;;;;5126360;28;20046;-41
2022/04/21 04:18:15;;;;;;;3.47;1.50;;;;;;;;;;5127468;28;19915;-45
2022/04/21 04:20:41;;;;;;;7.00;2.33;;;;;;;;;;5126556;28;20043;-43
2022/04/21 04:23:06;;;;;;;10.43;2.30;;;;;;;;;;5126272;28;20035;-44
2022/04/21 04:25:31;;;;;;;3.88;2.55;;;;;;;;;;5126255;28;20096;-42
2022/04/21 04:27:57;;;;;;;7.75;5.50;;;;;;;;;;5126229;28;20059;-41
2022/04/21 04:30:22;;;;;;;19.95;16.80;;;;;;;;;;5125828;28;20046;-44
2022/04/21 04:32:48;;;;;;;20.88;12.30;;;;;;;;;;5125953;28;20081;-44
2022/04/21 04:35:13;;;;;;;17.88;13.07;;;;;;;;;;5126169;28;20423;-43
2022/04/21 04:37:39;;;;;;;15.80;10.35;;;;;;;;;;5126217;28;20043;-47
2022/04/21 04:40:04;;;;;;;15.40;11.00;;;;;;;;;;5125065;28;20043;-43
2022/04/21 04:42:30;;;;;;;14.32;9.55;;;;;;;;;;5125387;28;20051;-45
2022/04/21 04:47:39;;;;;;;7.80;6.25;;;;;;;;;;5126160;28;20065;-42
2022/04/21 04:50:06;;;;;;;9.15;6.20;;;;;;;;;;5126148;28;20047;-42
2022/04/21 04:52:31;;;;;;;28.92;11.43;;;;;;;;;;5125812;28;20321;-43
2022/04/21 04:54:56;;;;;;;19.55;11.75;;;;;;;;;;5126164;28;20548;-41
2022/04/21 04:57:22;;;;;;;14.15;8.05;;;;;;;;;;5126496;28;20043;-43
2022/04/21 04:59:47;;;;;;;10.55;8.63;;;;;;;;;;5125836;28;20277;-43
2022/04/21 05:02:13;;;;;;;13.52;5.47;;;;;;;;;;5125490;28;20095;-43
2022/04/21 05:04:38;;;;;;;7.40;4.22;;;;;;;;;;5125675;28;20157;-44
2022/04/21 05:07:05;;;;;;;12.50;5.70;;;;;;;;;;5125780;28;20464;-44
2022/04/21 05:09:30;;;;;;;7.75;4.53;;;;;;;;;;5126032;28;20067;-44
2022/04/21 05:11:57;;;;;;;7.78;5.18;;;;;;;;;;5125573;28;20454;-47
2022/04/21 05:14:23;;;;;;;9.70;5.57;;;;;;;;;;5125745;28;20525;-41
2022/04/21 05:16:48;;;;;;;11.43;6.88;;;;;;;;;;5125599;28;20059;-43
2022/04/21 05:19:15;;;;;;;12.35;8.10;;;;;;;;;;5124669;28;20035;-42
2022/04/21 05:21:41;;;;;;;13.88;7.93;;;;;;;;;;5124485;27;20254;-41
2022/04/21 05:24:07;;;;;;;10.88;6.85;;;;;;;;;;5125839;28;20490;-45
2022/04/21 05:26:33;;;;;;;11.27;6.50;;;;;;;;;;5125448;28;20039;-43
2022/04/21 05:28:59;;;;;;;15.20;8.30;;;;;;;;;;5125672;28;20043;-43
2022/04/21 05:31:28;;;;;;;22.52;7.30;;;;;;;;;;5125446;28;20102;-45
2022/04/21 05:33:54;;;;;;;13.48;6.70;;;;;;;;;;5124218;28;20500;-44
2022/04/21 05:36:20;;;;;;;6.88;5.65;;;;;;;;;;5125015;28;20082;-44
2022/04/21 05:38:46;;;;;;;6.68;5.28;;;;;;;;;;5125376;28;20087;-43
2022/04/21 05:41:13;;;;;;;8.95;6.32;;;;;;;;;;5124148;28;20055;-46
2022/04/21 05:43:45;;;;;;;12.95;8.32;;;;;;;;;;5125093;28;20585;-47
2022/04/21 05:46:12;;;;;;;11.40;7.47;;;;;;;;;;5123678;28;20058;-43
2022/04/21 05:48:37;;;;;;;31.25;7.57;;;;;;;;;;5124508;28;20070;-43
2022/04/21 05:51:06;;;;;;;7.38;5.80;;;;;;;;;;5120275;28;20827;-41
2022/04/21 05:53:34;;;;;;;10.60;6.07;;;;;;;;;;5124252;28;20127;-43
2022/04/21 05:56:00;;;;;;;8.57;5.28;;;;;;;;;;5124682;28;20118;-45
2022/04/21 05:58:26;;;;;;;12.07;5.68;;;;;;;;;;5124334;28;20130;-45
2022/04/21 06:00:51;;;;;;;11.73;7.30;;;;;;;;;;5125052;28;20051;-43
2022/04/21 06:03:17;;;;;;;13.82;8.55;;;;;;;;;;5125207;28;20054;-43
2022/04/21 06:05:43;;;;;;;13.25;7.85;;;;;;;;;;5123575;28;20095;-43
2022/04/21 06:08:08;;;;;;;12.55;7.93;;;;;;;;;;5124074;28;20043;-44
2022/04/21 06:10:36;;;;;;;11.30;7.53;;;;;;;;;;5123243;28;20350;-47
2022/04/21 06:13:04;;;;;;;8.68;5.25;;;;;;;;;;5123320;28;20490;-44
2022/04/21 06:15:33;;;;;;;16.73;4.82;;;;;;;;;;5123011;28;20031;-47
2022/04/21 06:17:58;;;;;;;9.93;5.75;;;;;;;;;;5123585;28;20043;-46
2022/04/21 06:20:24;;;;;;;6.10;4.20;;;;;;;;;;5123676;28;20716;-42
2022/04/21 06:22:49;;;;;;;6.15;3.83;;;;;;;;;;5123400;28;20050;-45
2022/04/21 06:25:15;;;;;;;9.10;5.97;;;;;;;;;;5124736;28;20612;-41
2022/04/21 06:27:40;;;;;;;11.45;5.10;;;;;;;;;;5125215;28;20054;-45
2022/04/21 06:30:06;;;;;;;12.93;7.05;;;;;;;;;;5106273;28;20039;-44
2022/04/21 06:32:31;;;;;;;7.05;6.35;;;;;;;;;;5124659;27;20091;-47
2022/04/21 06:34:57;;;;;;;13.82;5.68;;;;;;;;;;5127699;28;20092;-46
2022/04/21 06:37:22;;;;;;;6.15;4.22;;;;;;;;;;5128574;28;20047;-42
2022/04/21 06:39:48;;;;;;;7.03;4.38;;;;;;;;;;5128400;28;20047;-44
2022/04/21 06:42:13;;;;;;;14.50;5.75;;;;;;;;;;5128857;28;20632;-50
2022/04/21 06:50:06;;;;;;;35.42;12.07;;;;;;;;;;5127291;28;20121;-44
2022/04/21 06:52:32;;;;;;;28.17;12.43;;;;;;;;;;5128444;28;20549;-45
2022/04/21 06:54:57;;;;;;;29.65;10.52;;;;;;;;;;5123995;28;20118;-42
2022/04/21 06:57:24;;;;;;;15.88;10.20;;;;;;;;;;5126914;28;20920;-44
2022/04/21 06:59:49;;;;;;;19.17;7.80;;;;;;;;;;5127350;28;20055;-46
2022/04/21 07:02:16;;;;;;;8.13;5.68;;;;;;;;;;5128033;28;20047;-44
2022/04/21 07:04:41;;;;;;;11.38;4.07;;;;;;;;;;5128082;28;20043;-48
2022/04/21 07:07:07;;;;;;;8.75;7.00;;;;;;;;;;5127925;28;20035;-42
2022/04/21 07:09:32;;;;;;;8.35;6.70;;;;;;;;;;5127842;28;20449;-41
2022/04/21 07:11:57;;;;;;;15.98;6.55;;;;;;;;;;5128105;28;20077;-43
2022/04/21 07:14:23;;;;;;;12.27;8.02;;;;;;;;;;5128328;28;20482;-42
2022/04/21 07:16:48;;;;;;;8.85;7.15;;;;;;;;;;5127481;28;20071;-44
2022/04/21 07:19:14;;;;;;;6.43;5.15;;;;;;;;;;5128088;28;20077;-46
2022/04/21 07:21:39;;;;;;;8.70;5.38;;;;;;;;;;5127934;28;20634;-44
2022/04/21 07:24:04;;;;;;;9.88;6.47;;;;;;;;;;5126301;28;20077;-48
2022/04/21 07:26:30;;;;;;;12.80;11.20;;;;;;;;;;5127144;28;20103;-48
2022/04/21 07:28:56;;;;;;;11.43;8.25;;;;;;;;;;5127381;28;20060;-42
2022/04/21 07:31:22;;;;;;;9.50;7.68;;;;;;;;;;5127611;28;20088;-43
2022/04/21 07:33:47;;;;;;;9.65;6.63;;;;;;;;;;5126674;28;20047;-46
2022/04/21 07:36:12;;;;;;;6.32;4.20;;;;;;;;;;5126617;28;20046;-47
2022/04/21 07:38:38;;;;;;;5.45;3.80;;;;;;;;;;5128159;28;20417;-47
2022/04/21 07:41:03;;;;;;;4.65;2.55;;;;;;;;;;5126849;28;20485;-43
2022/04/21 07:43:28;;;;;;;5.93;4.13;;;;;;;;;;5128051;28;20054;-44
2022/04/21 07:45:54;;;;;;;6.00;2.67;;;;;;;;;;5126533;27;20039;-46
2022/04/21 07:48:19;;;;;;;4.18;2.13;;;;;;;;;;5126279;28;20051;-45
2022/04/21 07:50:45;;;;;;;18.30;4.93;;;;;;;;;;5126625;28;20088;-42
2022/04/21 07:53:13;;;;;;;4.80;1.92;;;;;;;;;;5127315;28;20067;-51
2022/04/21 07:55:39;;;;;;;4.15;2.55;;;;;;;;;;5126374;28;20031;-47
2022/04/21 07:58:05;;;;;;;5.85;2.17;;;;;;;;;;5127446;28;20039;-51
2022/04/21 08:00:30;;;;;;;5.22;2.83;;;;;;;;;;5127292;28;20087;-52
2022/04/21 08:02:56;;;;;;;4.45;1.65;;;;;;;;;;5127755;28;20043;-53
2022/04/21 08:05:21;;;;;;;1.60;0.82;;;;;;;;;;5126436;28;20425;-51
2022/04/21 08:07:47;;;;;;;2.83;1.75;;;;;;;;;;5127832;28;20152;-54
2022/04/21 08:10:13;;;;;;;3.63;1.15;;;;;;;;;;5127905;28;20509;-51
2022/04/21 08:12:42;;;;;;;7.03;2.22;;;;;;;;;;5127775;28;20119;-53
2022/04/21 08:15:08;;;;;;;3.95;1.65;;;;;;;;;;5126570;28;20074;-55
2022/04/21 08:17:34;;;;;;;1.75;1.25;;;;;;;;;;5125868;28;20039;-53
2022/04/21 08:19:59;;;;;;;6.53;1.50;;;;;;;;;;5126346;28;20490;-54
2022/04/21 08:22:24;;;;;;;5.32;1.25;;;;;;;;;;5126226;28;20039;-52
2022/04/21 08:33:01;;;;;;;1.88;0.77;;;;;;;;;;5126069;28;20414;-52
2022/04/21 08:35:27;;;;;;;1.80;0.73;;;;;;;;;;5127079;28;20048;-51
2022/04/21 08:37:52;;;;;;;2.70;0.55;;;;;;;;;;5126928;28;20047;-53
2022/04/21 08:40:18;;;;;;;8.85;1.70;;;;;;;;;;5124791;28;20095;-54
2022/04/21 08:42:44;;;;;;;3.33;1.23;;;;;;;;;;5126615;28;20046;-51
2022/04/21 08:45:10;;;;;;;2.10;0.65;;;;;;;;;;5126141;28;20544;-49
2022/04/21 08:47:36;;;;;;;7.57;0.80;;;;;;;;;;5126085;28;20162;-54
2022/04/21 08:50:06;;;;;;;5.82;1.73;;;;;;;;;;5126050;28;20073;-49
2022/04/21 08:52:32;;;;;;;7.95;4.47;;;;;;;;;;5125577;28;20171;-50
2022/04/21 08:54:58;;;;;;;10.60;1.83;;;;;;;;;;5124398;28;20035;-50
2022/04/21 08:57:23;;;;;;;1.85;1.08;;;;;;;;;;5125151;27;20038;-50
2022/04/21 08:59:48;;;;;;;4.45;2.30;;;;;;;;;;5125706;28;20685;-50
2022/04/21 09:02:14;;;;;;;5.10;2.90;;;;;;;;;;5125019;28;20046;-47
2022/04/21 09:04:41;;;;;;;13.35;3.55;;;;;;;;;;5125638;28;20490;-52
2022/04/21 09:07:13;;;;;;;8.23;2.30;;;;;;;;;;5125109;28;20417;-54
2022/04/21 09:09:38;;;;;;;5.97;2.33;;;;;;;;;;5124924;28;20578;-50
2022/04/21 09:12:03;;;;;;;10.88;1.27;;;;;;;;;;5125688;28;20043;-54
2022/04/21 09:14:30;;;;;;;5.15;1.63;;;;;;;;;;5126005;28;20039;-51
2022/04/21 09:17:02;;;;;;;1.15;0.50;;;;;;;;;;5124706;28;20051;-50
2022/04/21 09:19:27;;;;;;;13.75;2.72;;;;;;;;;;5124744;28;20043;-49
2022/04/21 09:21:53;;;;;;;1.45;0.60;;;;;;;;;;5122778;28;20136;-57
2022/04/21 09:24:22;;;;;;;6.53;1.70;;;;;;;;;;5124641;28;20414;-53
2022/04/21 09:26:48;;;;;;;7.18;2.25;;;;;;;;;;5123272;28;20046;-55
2022/04/21 09:29:21;;;;;;;6.72;2.22;;;;;;;;;;5124726;28;20039;-51
2022/04/21 09:31:47;;;;;;;2.13;1.23;;;;;;;;;;5125034;28;20067;-54
2022/04/21 09:34:12;;;;;;;3.85;0.98;;;;;;;;;;5124789;28;20473;-56
2022/04/21 09:36:38;;;;;;;8.55;1.70;;;;;;;;;;5124603;28;20058;-55
2022/04/21 09:39:03;;;;;;;3.92;1.58;;;;;;;;;;5124576;28;20181;-54
2022/04/21 09:41:29;;;;;;;16.33;3.65;;;;;;;;;;5124733;28;20031;-52
2022/04/21 09:44:04;;;;;;;4.32;1.65;;;;;;;;;;5124100;28;20481;-52
2022/04/21 09:46:34;;;;;;;3.80;1.80;;;;;;;;;;5124417;28;20050;-54
2022/04/21 09:48:59;;;;;;;7.20;2.38;;;;;;;;;;5124337;28;20035;-54
2022/04/21 09:51:27;;;;;;;4.68;1.33;;;;;;;;;;5124268;28;20155;-52
2022/04/21 09:53:53;;;;;;;7.07;3.15;;;;;;;;;;5124235;28;20165;-53
2022/04/21 09:56:28;;;;;;;11.18;3.63;;;;;;;;;;5123841;28;20047;-55
2022/04/21 09:58:53;;;;;;;8.52;5.65;;;;;;;;;;5123754;28;20051;-52
2022/04/21 10:01:19;;;;;;;8.65;2.78;;;;;;;;;;5123929;28;20075;-55
2022/04/21 10:03:45;;;;;;;5.55;2.17;;;;;;;;;;5123794;28;20053;-51
2022/04/21 10:06:10;;;;;;;4.97;1.27;;;;;;;;;;5124193;28;20146;-54
2022/04/21 10:08:40;;;;;;;5.30;1.70;;;;;;;;;;5125758;27;20134;-53
2022/04/21 10:11:06;;;;;;;5.75;3.50;;;;;;;;;;5126421;28;20047;-50
2022/04/21 10:13:31;;;;;;;15.38;9.55;;;;;;;;;;5128038;28;20062;-53
2022/04/21 10:15:57;;;;;;;7.40;5.20;;;;;;;;;;5127229;28;20585;-55
2022/04/21 10:18:22;;;;;;;6.50;4.00;;;;;;;;;;5127839;28;20170;-54
2022/04/21 10:20:51;;;;;;;5.68;2.45;;;;;;;;;;5126238;28;20047;-53
2022/04/21 10:23:17;;;;;;;5.07;2.60;;;;;;;;;;5108208;28;20670;-53
2022/04/21 10:25:43;;;;;;;5.18;2.25;;;;;;;;;;5127392;28;20104;-52
2022/04/21 10:28:27;;;;;;;2.80;1.40;;;;;;;;;;5127086;28;20496;-53
2022/04/21 10:30:52;;;;;;;12.98;4.55;;;;;;;;;;5127107;28;20050;-51
2022/04/21 10:33:18;;;;;;;15.95;7.88;;;;;;;;;;5126063;28;20516;-54
2022/04/21 10:35:43;;;;;;;6.60;3.60;;;;;;;;;;5127458;28;20395;-54
2022/04/21 10:38:11;;;;;;;6.25;2.53;;;;;;;;;;5127659;28;20051;-52
2022/04/21 10:40:53;;;;;;;2.42;1.35;;;;;;;;;;5106089;28;20591;-49
2022/04/21 10:43:19;;;;;;;2.85;1.77;;;;;;;;;;5127033;28;20039;-54
2022/04/21 10:46:01;;;;;;;3.17;1.63;;;;;;;;;;5126894;28;20055;-52
2022/04/21 10:48:40;;;;;;;4.25;1.63;;;;;;;;;;5126999;28;20047;-54
2022/04/21 10:51:06;;;;;;;6.13;2.15;;;;;;;;;;5127016;28;20728;-54
2022/04/21 10:59:23;;;;;;;3.95;1.95;;;;;;;;;;5123560;28;20151;-52
2022/04/21 11:01:53;;;;;;;7.47;1.98;;;;;;;;;;5126975;28;20166;-53
2022/04/21 11:04:19;;;;;;;4.85;1.95;;;;;;;;;;5126777;28;20086;-53
2022/04/21 11:06:45;;;;;;;8.52;2.53;;;;;;;;;;5127009;28;20552;-54
2022/04/21 11:09:29;;;;;;;9.70;2.85;;;;;;;;;;5126970;28;20053;-57
2022/04/21 11:11:54;;;;;;;8.80;3.92;;;;;;;;;;5098039;28;20044;-58
2022/04/21 11:14:29;;;;;;;7.18;3.25;;;;;;;;;;5127343;28;20065;-56
2022/04/21 11:16:55;;;;;;;5.75;1.00;;;;;;;;;;5127782;28;20043;-54
2022/04/21 11:19:32;;;;;;;4.30;1.55;;;;;;;;;;5127008;27;20494;-52
2022/04/21 11:22:08;;;;;;;3.65;1.60;;;;;;;;;;5127303;28;20077;-49
2022/04/21 11:24:52;;;;;;;10.27;3.30;;;;;;;;;;5126422;28;20055;-58
2022/04/21 11:27:18;;;;;;;2.85;1.48;;;;;;;;;;5127375;28;20039;-57
2022/04/21 11:29:44;;;;;;;9.23;2.53;;;;;;;;;;5107004;28;20040;-55
2022/04/21 11:32:14;;;;;;;3.28;0.85;;;;;;;;;;5127291;28;20043;-53
2022/04/21 11:34:39;;;;;;;5.35;1.00;;;;;;;;;;5125241;28;20062;-52
2022/04/21 11:37:06;;;;;;;6.93;1.75;;;;;;;;;;5127000;28;20074;-55
2022/04/21 11:39:37;;;;;;;24.00;18.23;;;;;;;;;;5126962;28;20031;-54
2022/04/21 11:42:03;;;;;;;9.45;6.10;;;;;;;;;;5126747;28;21037;-51
2022/04/21 11:44:29;;;;;;;1.80;1.02;;;;;;;;;;5127160;28;20480;-54
2022/04/21 11:46:54;;;;;;;2.65;0.90;;;;;;;;;;5127074;28;20054;-54
2022/04/21 11:49:19;;;;;;;5.80;2.17;;;;;;;;;;5127185;28;20059;-53
2022/04/21 11:51:51;;;;;;;8.35;3.28;;;;;;;;;;5126917;28;20645;-54
2022/04/21 11:54:17;;;;;;;13.00;3.42;;;;;;;;;;5126705;28;20039;-54
2022/04/21 11:56:49;;;;;;;11.18;2.28;;;;;;;;;;5106449;28;20043;-53
2022/04/21 11:59:14;;;;;;;9.60;2.17;;;;;;;;;;5107593;28;20035;-52
2022/04/21 12:07:14;;;;;;;2.95;0.98;;;;;;;;;;5125827;28;20187;-60
2022/04/21 12:09:41;;;;;;;7.13;1.70;;;;;;;;;;5126080;28;20054;-61
2022/04/21 12:12:08;;;;;;;3.38;2.03;;;;;;;;;;5126830;28;20078;-61
2022/04/21 12:14:33;;;;;;;4.95;0.90;;;;;;;;;;5126233;28;20764;-61
2022/04/21 12:17:00;;;;;;;3.90;1.40;;;;;;;;;;5123336;28;20079;-59
2022/04/21 12:19:28;;;;;;;5.80;1.73;;;;;;;;;;5126991;28;20669;-60
2022/04/21 12:21:59;;;;;;;6.43;1.77;;;;;;;;;;5126894;28;20043;-60
2022/04/21 12:24:29;;;;;;;9.05;1.75;;;;;;;;;;5122557;27;20055;-59
2022/04/21 12:26:55;;;;;;;17.60;1.70;;;;;;;;;;5125988;28;20039;-56
2022/04/21 12:29:21;;;;;;;8.85;2.20;;;;;;;;;;5125138;27;20516;-53
2022/04/21 12:31:46;;;;;;;2.58;1.25;;;;;;;;;;5124660;27;20126;-55
2022/04/21 12:34:12;;;;;;;3.83;1.40;;;;;;;;;;5125227;28;20170;-52
2022/04/21 12:36:37;;;;;;;3.25;2.10;;;;;;;;;;5123513;28;20448;-57
2022/04/21 12:39:03;;;;;;;0.77;0.60;;;;;;;;;;5126241;28;20527;-57
2022/04/21 12:41:28;;;;;;;2.03;0.75;;;;;;;;;;5125659;28;20154;-57
2022/04/21 12:43:54;;;;;;;4.15;1.60;;;;;;;;;;5125711;28;20039;-56
2022/04/21 12:46:22;;;;;;;4.88;1.23;;;;;;;;;;5123884;28;20043;-56
2022/04/21 12:48:51;;;;;;;7.68;2.17;;;;;;;;;;5125193;28;20031;-56
2022/04/21 12:51:19;;;;;;;3.15;1.95;;;;;;;;;;5125816;28;20050;-57
2022/04/21 12:53:54;;;;;;;3.83;2.17;;;;;;;;;;5126060;28;20055;-57
2022/04/21 12:56:19;;;;;;;4.55;1.48;;;;;;;;;;5126150;28;20145;-57
2022/04/21 12:58:54;;;;;;;3.65;1.23;;;;;;;;;;5126152;28;20130;-58
2022/04/21 13:01:19;;;;;;;6.70;1.92;;;;;;;;;;5126149;28;20043;-58
2022/04/21 13:03:45;;;;;;;7.15;1.80;;;;;;;;;;5125269;28;20150;-57
2022/04/21 13:06:10;;;;;;;2.70;1.35;;;;;;;;;;5126090;28;20051;-58
2022/04/21 13:08:35;;;;;;;2.58;1.00;;;;;;;;;;5125636;28;20115;-57
2022/04/21 13:11:01;;;;;;;5.45;1.27;;;;;;;;;;5123388;28;20046;-58
2022/04/21 13:13:29;;;;;;;5.78;1.77;;;;;;;;;;5125717;28;20125;-57
2022/04/21 13:15:55;;;;;;;11.10;1.70;;;;;;;;;;5124456;28;20062;-57
2022/04/21 13:18:20;;;;;;;4.90;1.13;;;;;;;;;;5125215;28;20717;-57
2022/04/21 13:23:29;;;;;;;2.72;1.25;;;;;;;;;;5124094;28;20050;-57
2022/04/21 13:25:55;;;;;;;2.80;1.48;;;;;;;;;;5124532;28;20039;-58
2022/04/21 13:28:21;;;;;;;7.55;2.40;;;;;;;;;;5125418;28;20126;-58
2022/04/21 13:33:21;;;;;;;4.32;1.27;;;;;;;;;;5124315;28;20630;-58
2022/04/21 13:33:32;;;;;;;3.85;1.42;;;;;;;;;;5124250;28;20059;-57
2022/04/21 13:35:57;;;;;;;4.03;1.48;;;;;;;;;;5123925;28;20085;-57
2022/04/21 13:38:22;;;;;;;2.72;1.25;;;;;;;;;;5125406;28;20043;-57
2022/04/21 13:40:48;;;;;;;3.85;1.60;;;;;;;;;;5124667;28;20058;-57
2022/04/21 13:43:13;;;;;;;5.25;1.50;;;;;;;;;;5124301;27;20078;-56
2022/04/21 13:45:39;;;;;;;1.73;1.13;;;;;;;;;;5123660;28;20074;-56
2022/04/21 13:48:05;;;;;;;3.10;1.90;;;;;;;;;;5124222;28;20047;-56
2022/04/21 13:50:30;;;;;;;6.80;1.52;;;;;;;;;;5124731;28;20088;-57
2022/04/21 13:52:56;;;;;;;4.82;2.53;;;;;;;;;;5123798;28;20047;-57
2022/04/21 13:55:21;;;;;;;3.30;2.05;;;;;;;;;;5123319;28;20530;-57
2022/04/21 13:57:47;;;;;;;22.50;3.38;;;;;;;;;;5123848;28;20054;-57
2022/04/21 14:00:12;;;;;;;4.53;0.80;;;;;;;;;;5123955;28;20685;-57
2022/04/21 14:02:38;;;;;;;1.25;0.80;;;;;;;;;;5124090;28;20505;-57
2022/04/21 14:05:03;;;;;;;0.68;0.45;;;;;;;;;;5123744;28;20071;-56
2022/04/21 14:07:28;;;;;;;2.05;1.00;;;;;;;;;;5123575;28;20047;-57
2022/04/21 14:09:54;;;;;;;6.88;1.83;;;;;;;;;;5124342;28;20057;-57
2022/04/21 14:12:19;;;;;;;3.65;1.25;;;;;;;;;;5124933;28;20043;-58
2022/04/21 14:14:45;;;;;;;3.47;0.98;;;;;;;;;;5124810;28;20528;-57
2022/04/21 14:17:11;;;;;;;3.78;0.70;;;;;;;;;;5124549;28;20059;-58
2022/04/21 14:19:36;;;;;;;1.67;0.35;;;;;;;;;;5122256;28;20042;-57
2022/04/21 14:22:01;;;;;;;1.05;0.55;;;;;;;;;;5124281;28;20069;-58
2022/04/21 14:24:26;;;;;;;10.20;3.35;;;;;;;;;;5124006;28;20053;-58
2022/04/21 14:26:52;;;;;;;8.93;1.23;;;;;;;;;;5123897;28;20042;-56
2022/04/21 14:29:17;;;;;;;16.77;1.70;;;;;;;;;;5123149;28;20460;-57
2022/04/21 14:31:42;;;;;;;2.20;0.50;;;;;;;;;;5123875;28;20035;-57
2022/04/21 14:34:08;;;;;;;1.08;0.40;;;;;;;;;;5123808;28;20051;-56
2022/04/21 14:36:33;;;;;;;2.22;1.70;;;;;;;;;;5123918;28;20031;-57
2022/04/21 14:44:29;;;;;;;14.20;10.88;;;;;;;;;;5123236;28;20538;-58
2022/04/21 14:46:56;;;;;;;6.57;1.52;;;;;;;;;;5123235;28;20038;-57
2022/04/21 14:49:21;;;;;;;1.70;1.10;;;;;;;;;;5122638;28;20119;-58
2022/04/21 14:51:47;;;;;;;2.63;0.98;;;;;;;;;;5124241;28;20506;-57
2022/04/21 14:54:12;;;;;;;2.50;0.85;;;;;;;;;;5124629;27;20066;-57
2022/04/21 14:56:38;;;;;;;2.55;1.10;;;;;;;;;;5127837;28;20123;-57
2022/04/21 14:59:07;;;;;;;1.20;0.90;;;;;;;;;;5128682;28;20043;-57
2022/04/21 15:01:32;;;;;;;7.00;1.63;;;;;;;;;;5128152;28;20126;-56
2022/04/21 15:03:58;;;;;;;0.90;0.40;;;;;;;;;;5128104;28;20147;-57
2022/04/21 15:06:23;;;;;;;2.25;1.00;;;;;;;;;;5126155;28;20071;-56
2022/04/21 15:08:49;;;;;;;1.95;0.40;;;;;;;;;;5126247;28;20047;-57
2022/04/21 15:11:14;;;;;;;3.03;1.85;;;;;;;;;;5127392;28;20035;-57
2022/04/21 15:13:40;;;;;;;7.00;2.85;;;;;;;;;;5125898;28;20027;-57
2022/04/21 15:16:05;;;;;;;3.45;1.65;;;;;;;;;;5127287;28;20047;-57
2022/04/21 15:18:31;;;;;;;2.92;1.33;;;;;;;;;;5107057;28;20039;-57
2022/04/21 15:20:57;;;;;;;2.13;0.95;;;;;;;;;;5127193;28;20042;-57
2022/04/21 15:23:23;;;;;;;0.65;0.40;;;;;;;;;;5127816;28;20121;-55
2022/04/21 15:25:50;;;;;;;3.20;1.08;;;;;;;;;;5126795;28;20107;-57
2022/04/21 15:28:16;;;;;;;3.42;1.95;;;;;;;;;;5125698;28;20044;-57
2022/04/21 15:30:41;;;;;;;6.07;1.85;;;;;;;;;;5125800;28;20544;-57
2022/04/21 15:33:09;;;;;;;1.88;0.63;;;;;;;;;;5127204;28;20057;-57
2022/04/21 15:35:35;;;;;;;3.83;1.88;;;;;;;;;;5126257;28;20045;-56